createdAt,value
2022-08-29T00:01:08.542Z,1.50
2022-08-29T00:02:41.129Z,1.70
2022-08-29T00:04:14.595Z,1.50
2022-08-29T00:05:49.944Z,1.70
2022-08-29T00:07:22.060Z,1.50
2022-08-29T00:08:53.767Z,1.87
2022-08-29T00:10:26.995Z,1.67
2022-08-29T00:11:59.484Z,1.27
2022-08-29T00:13:31.177Z,1.73
2022-08-29T00:15:05.408Z,1.83
2022-08-29T00:16:37.144Z,1.97
2022-08-29T00:18:08.977Z,1.80
2022-08-29T00:19:41.009Z,1.63
2022-08-29T00:21:13.387Z,1.80
2022-08-29T00:22:45.259Z,1.70
2022-08-29T00:24:17.189Z,1.67
2022-08-29T00:25:48.976Z,2.13
2022-08-29T00:27:20.683Z,1.67
2022-08-29T00:28:52.380Z,1.80
2022-08-29T00:30:24.972Z,1.57
2022-08-29T00:31:56.845Z,1.50
2022-08-29T00:33:28.865Z,1.60
2022-08-29T00:35:12.941Z,2.03
2022-08-29T00:36:49.035Z,1.50
2022-08-29T00:38:21.609Z,2.07
2022-08-29T00:39:59.713Z,1.40
2022-08-29T00:41:31.705Z,2.10
2022-08-29T00:43:04.441Z,1.50
2022-08-29T00:44:36.277Z,1.63
2022-08-29T00:46:20.172Z,1.90
2022-08-29T00:47:57.348Z,1.40
2022-08-29T00:49:36.626Z,1.50
2022-08-29T00:51:15.399Z,1.50
2022-08-29T00:52:48.605Z,1.50
2022-08-29T00:54:22.234Z,1.60
2022-08-29T00:55:54.293Z,1.70
2022-08-29T00:57:28.494Z,1.80
2022-08-29T00:59:06.650Z,1.83
2022-08-29T01:00:38.728Z,2.00
2022-08-29T01:02:11.230Z,1.70
2022-08-29T01:03:43.530Z,2.10
2022-08-29T01:05:17.916Z,1.80
2022-08-29T01:06:49.751Z,1.70
2022-08-29T01:08:21.477Z,1.40
2022-08-29T01:09:54.146Z,1.80
2022-08-29T01:11:47.831Z,1.90
2022-08-29T01:13:20.086Z,1.60
2022-08-29T01:15:02.069Z,1.70
2022-08-29T01:16:33.927Z,1.70
2022-08-29T01:18:08.004Z,1.80
2022-08-29T01:19:50.822Z,1.80
2022-08-29T01:21:40.872Z,1.97
2022-08-29T01:23:35.722Z,1.90
2022-08-29T01:25:13.747Z,1.80
2022-08-29T01:26:47.034Z,1.97
2022-08-29T01:28:25.999Z,1.60
2022-08-29T01:29:57.756Z,1.70
2022-08-29T01:31:56.925Z,1.63
2022-08-29T01:33:45.154Z,1.80
2022-08-29T01:35:19.621Z,1.40
2022-08-29T01:36:56.018Z,1.50
2022-08-29T01:38:27.823Z,1.93
2022-08-29T01:39:59.632Z,1.70
2022-08-29T01:41:32.802Z,1.67
2022-08-29T01:43:04.602Z,1.60
2022-08-29T01:44:37.169Z,1.57
2022-08-29T01:46:10.557Z,1.43
2022-08-29T01:47:42.361Z,2.00
2022-08-29T01:49:14.890Z,1.97
2022-08-29T01:50:46.784Z,2.00
2022-08-29T01:52:18.880Z,1.73
2022-08-29T01:53:51.533Z,1.67
2022-08-29T01:55:23.248Z,1.90
2022-08-29T01:56:54.987Z,1.70
2022-08-29T01:58:27.031Z,1.80
2022-08-29T01:59:59.316Z,1.97
2022-08-29T02:01:39.780Z,1.90
2022-08-29T02:03:11.579Z,1.87
2022-08-29T02:04:45.263Z,1.73
2022-08-29T02:06:17.015Z,1.97
2022-08-29T02:07:49.167Z,1.77
2022-08-29T02:09:20.979Z,2.10
2022-08-29T02:10:55.748Z,1.73
2022-08-29T02:12:27.507Z,1.73
2022-08-29T02:13:59.643Z,1.60
2022-08-29T02:15:31.363Z,2.17
2022-08-29T02:17:05.332Z,1.90
2022-08-29T02:18:37.046Z,2.33
2022-08-29T02:20:09.096Z,1.97
2022-08-29T02:21:42.019Z,1.70
2022-08-29T02:23:30.198Z,1.90
2022-08-29T02:25:23.643Z,1.70
2022-08-29T02:26:58.711Z,1.70
2022-08-29T02:28:31.535Z,2.10
2022-08-29T02:30:03.591Z,1.87
2022-08-29T02:31:36.861Z,1.50
2022-08-29T02:33:09.675Z,1.57
2022-08-29T02:34:44.639Z,1.97
2022-08-29T02:36:20.775Z,1.70
2022-08-29T02:37:52.952Z,1.70
2022-08-29T02:39:24.895Z,1.50
2022-08-29T02:40:57.025Z,1.80
2022-08-29T02:42:28.770Z,2.03
2022-08-29T02:44:00.686Z,1.70
2022-08-29T02:45:36.144Z,2.07
2022-08-29T02:47:09.213Z,1.90
2022-08-29T02:48:41.147Z,2.00
2022-08-29T02:50:20.004Z,1.80
2022-08-29T02:51:51.680Z,2.40
2022-08-29T02:53:27.881Z,1.77
2022-08-29T02:55:00.078Z,1.97
2022-08-29T02:56:31.964Z,1.90
2022-08-29T02:58:03.727Z,2.20
2022-08-29T02:59:35.724Z,1.73
2022-08-29T03:01:09.254Z,1.90
2022-08-29T03:02:41.134Z,1.70
2022-08-29T03:04:12.858Z,1.73
2022-08-29T03:05:44.592Z,1.60
2022-08-29T03:07:16.432Z,1.80
2022-08-29T03:08:48.193Z,1.73
2022-08-29T03:10:21.040Z,1.70
2022-08-29T03:11:55.980Z,1.70
2022-08-29T03:13:27.675Z,1.90
2022-08-29T03:14:59.631Z,1.97
2022-08-29T03:16:31.383Z,2.20
2022-08-29T03:18:04.312Z,1.90
2022-08-29T03:19:37.280Z,1.80
2022-08-29T03:21:17.856Z,1.93
2022-08-29T03:22:50.403Z,1.70
2022-08-29T03:24:26.345Z,1.60
2022-08-29T03:25:59.324Z,2.20
2022-08-29T03:27:32.179Z,1.73
2022-08-29T03:29:04.644Z,1.80
2022-08-29T03:30:36.744Z,2.03
2022-08-29T03:32:08.452Z,1.90
2022-08-29T03:33:40.202Z,1.90
2022-08-29T03:35:13.427Z,1.90
2022-08-29T03:36:45.140Z,1.80
2022-08-29T03:38:17.392Z,1.77
2022-08-29T03:39:49.188Z,1.70
2022-08-29T03:41:23.157Z,2.03
2022-08-29T03:42:56.681Z,2.00
2022-08-29T03:44:28.826Z,1.90
2022-08-29T03:46:00.552Z,1.80
2022-08-29T03:47:32.268Z,1.97
2022-08-29T03:49:04.165Z,2.00
2022-08-29T03:50:42.066Z,1.60
2022-08-29T03:52:13.781Z,2.13
2022-08-29T03:53:45.737Z,1.80
2022-08-29T03:55:20.165Z,2.07
2022-08-29T03:56:51.915Z,2.03
2022-08-29T03:58:23.712Z,2.30
2022-08-29T03:59:56.317Z,2.10
2022-08-29T04:01:29.645Z,2.23
2022-08-29T04:03:01.582Z,2.20
2022-08-29T04:04:51.824Z,1.90
2022-08-29T04:06:25.117Z,2.20
2022-08-29T04:07:58.900Z,2.47
2022-08-29T04:09:30.973Z,2.43
2022-08-29T04:11:09.493Z,1.50
2022-08-29T04:12:41.289Z,1.87
2022-08-29T04:14:13.765Z,2.10
2022-08-29T04:15:45.508Z,2.07
2022-08-29T04:17:17.307Z,1.70
2022-08-29T04:18:49.386Z,1.93
2022-08-29T04:20:25.434Z,1.80
2022-08-29T04:21:57.552Z,2.20
2022-08-29T04:23:29.236Z,1.80
2022-08-29T04:25:00.934Z,2.10
2022-08-29T04:26:37.069Z,1.80
2022-08-29T04:28:12.452Z,2.00
2022-08-29T04:29:44.221Z,2.00
2022-08-29T04:31:21.983Z,2.17
2022-08-29T04:32:53.782Z,2.20
2022-08-29T04:34:25.639Z,2.07
2022-08-29T04:35:57.389Z,1.90
2022-08-29T04:37:29.526Z,2.17
2022-08-29T04:39:01.516Z,2.13
2022-08-29T04:40:33.708Z,2.10
2022-08-29T04:42:05.574Z,2.00
2022-08-29T04:43:37.330Z,2.23
2022-08-29T04:45:14.702Z,2.00
2022-08-29T04:46:47.941Z,2.07
2022-08-29T04:48:20.154Z,1.97
2022-08-29T04:49:56.298Z,2.10
2022-08-29T04:51:28.526Z,2.20
2022-08-29T04:53:01.633Z,2.00
2022-08-29T04:54:33.354Z,2.50
2022-08-29T04:56:09.686Z,1.87
2022-08-29T04:57:42.122Z,2.07
2022-08-29T04:59:14.869Z,2.00
2022-08-29T05:00:46.718Z,3.00
2022-08-29T05:02:18.418Z,1.87
2022-08-29T05:03:52.396Z,1.87
2022-08-29T05:05:24.119Z,2.07
2022-08-29T05:06:55.906Z,2.20
2022-08-29T05:08:29.079Z,1.93
2022-08-29T05:10:07.277Z,2.30
2022-08-29T05:11:40.154Z,2.07
2022-08-29T05:13:12.347Z,1.97
2022-08-29T05:14:44.022Z,2.20
2022-08-29T05:16:17.741Z,1.77
2022-08-29T05:17:49.519Z,2.43
2022-08-29T05:19:21.250Z,2.20
2022-08-29T05:20:55.694Z,2.40
2022-08-29T05:22:27.460Z,2.50
2022-08-29T05:23:59.751Z,2.27
2022-08-29T05:25:31.464Z,2.20
2022-08-29T05:27:14.222Z,2.77
2022-08-29T05:28:46.250Z,2.20
2022-08-29T05:30:23.022Z,1.90
2022-08-29T05:32:08.510Z,2.20
2022-08-29T05:33:41.129Z,2.20
2022-08-29T05:35:12.962Z,2.40
2022-08-29T05:36:45.143Z,2.53
2022-08-29T05:38:17.004Z,2.90
2022-08-29T05:39:49.363Z,2.90
2022-08-29T05:41:21.107Z,3.10
2022-08-29T05:42:52.846Z,3.00
2022-08-29T05:44:24.892Z,3.33
2022-08-29T05:46:04.609Z,3.00
2022-08-29T05:47:36.434Z,2.63
2022-08-29T05:49:08.726Z,3.50
2022-08-29T05:50:41.970Z,3.13
2022-08-29T05:52:16.171Z,2.67
2022-08-29T05:53:48.607Z,2.90
2022-08-29T05:55:20.403Z,2.47
2022-08-29T05:56:52.379Z,2.70
2022-08-29T05:58:24.147Z,2.60
2022-08-29T05:59:56.140Z,2.60
2022-08-29T06:01:32.907Z,2.87
2022-08-29T06:03:05.038Z,3.33
2022-08-29T06:04:37.339Z,2.87
2022-08-29T06:06:09.044Z,3.37
2022-08-29T06:07:40.758Z,3.50
2022-08-29T06:09:13.693Z,3.67
2022-08-29T06:10:46.177Z,3.27
2022-08-29T06:12:18.100Z,3.40
2022-08-29T06:13:49.872Z,3.33
2022-08-29T06:15:22.493Z,3.27
2022-08-29T06:16:54.621Z,4.00
2022-08-29T06:18:27.456Z,4.13
2022-08-29T06:20:09.516Z,3.70
2022-08-29T06:21:41.492Z,4.50
2022-08-29T06:23:14.149Z,4.10
2022-08-29T06:24:46.355Z,3.97
2022-08-29T06:26:19.802Z,3.93
2022-08-29T06:27:54.695Z,4.30
2022-08-29T06:29:29.405Z,3.60
2022-08-29T06:31:10.062Z,3.97
2022-08-29T06:32:41.793Z,3.83
2022-08-29T06:34:13.540Z,3.40
2022-08-29T06:35:45.263Z,3.43
2022-08-29T06:37:17.323Z,3.10
2022-08-29T06:38:49.029Z,3.10
2022-08-29T06:40:20.955Z,2.70
2022-08-29T06:41:52.809Z,3.20
2022-08-29T06:43:27.681Z,2.90
2022-08-29T06:44:59.397Z,3.30
2022-08-29T06:46:39.966Z,2.97
2022-08-29T06:48:11.832Z,2.60
2022-08-29T06:49:47.016Z,2.80
2022-08-29T06:51:19.509Z,2.70
2022-08-29T06:52:51.467Z,3.30
2022-08-29T06:54:29.805Z,2.93
2022-08-29T06:56:06.122Z,3.30
2022-08-29T06:57:44.357Z,2.90
2022-08-29T06:59:16.158Z,3.27
2022-08-29T07:00:49.890Z,3.17
2022-08-29T07:02:21.771Z,2.50
2022-08-29T07:03:55.899Z,2.70
2022-08-29T07:05:27.666Z,2.50
2022-08-29T07:06:59.382Z,2.80
2022-08-29T07:08:32.145Z,2.83
2022-08-29T07:10:04.320Z,3.00
2022-08-29T07:11:41.079Z,2.73
2022-08-29T07:13:13.072Z,2.57
2022-08-29T07:14:44.794Z,2.50
2022-08-29T07:16:18.584Z,2.40
2022-08-29T07:17:50.690Z,2.70
2022-08-29T07:19:22.504Z,2.90
2022-08-29T07:20:54.873Z,2.53
2022-08-29T07:22:26.946Z,3.10
2022-08-29T07:23:59.056Z,2.90
2022-08-29T07:25:30.757Z,3.27
2022-08-29T07:27:02.686Z,2.90
2022-08-29T07:28:35.742Z,3.13
2022-08-29T07:30:09.987Z,2.27
2022-08-29T07:31:42.566Z,3.00
2022-08-29T07:33:15.608Z,3.00
2022-08-29T07:34:47.419Z,2.60
2022-08-29T07:36:19.110Z,2.90
2022-08-29T07:37:52.086Z,2.73
2022-08-29T07:39:24.042Z,2.80
2022-08-29T07:41:05.505Z,3.40
2022-08-29T07:42:38.232Z,2.63
2022-08-29T07:44:11.274Z,3.40
2022-08-29T07:45:43.047Z,3.60
2022-08-29T07:47:19.219Z,2.50
2022-08-29T07:48:52.567Z,2.67
2022-08-29T07:50:24.269Z,2.83
2022-08-29T07:51:55.994Z,2.57
2022-08-29T07:53:27.755Z,3.77
2022-08-29T07:54:59.861Z,3.17
2022-08-29T07:56:37.980Z,2.50
2022-08-29T07:58:10.410Z,2.57
2022-08-29T07:59:42.190Z,2.90
2022-08-29T08:01:14.839Z,3.40
2022-08-29T08:02:53.524Z,2.60
2022-08-29T08:04:25.264Z,3.10
2022-08-29T08:05:57.896Z,2.93
2022-08-29T08:07:29.900Z,2.87
2022-08-29T08:09:01.682Z,2.47
2022-08-29T08:10:33.352Z,2.67
2022-08-29T08:12:08.404Z,2.73
2022-08-29T08:13:40.882Z,2.97
2022-08-29T08:15:13.473Z,2.97
2022-08-29T08:16:45.693Z,2.90
2022-08-29T08:18:17.480Z,2.70
2022-08-29T08:19:49.419Z,3.17
2022-08-29T08:21:24.364Z,3.10
2022-08-29T08:22:56.059Z,2.93
2022-08-29T08:24:27.828Z,2.90
2022-08-29T08:26:00.812Z,3.60
2022-08-29T08:27:32.986Z,2.97
2022-08-29T08:29:04.854Z,3.10
2022-08-29T08:30:36.669Z,3.00
2022-08-29T08:32:08.778Z,2.60
2022-08-29T08:33:41.619Z,3.20
2022-08-29T08:35:14.008Z,3.00
2022-08-29T08:36:46.263Z,2.93
2022-08-29T08:38:18.173Z,2.80
2022-08-29T08:39:49.877Z,2.93
2022-08-29T08:41:30.864Z,2.87
2022-08-29T08:43:03.485Z,2.97
2022-08-29T08:44:59.148Z,2.90
2022-08-29T08:46:47.683Z,3.00
2022-08-29T08:48:31.064Z,3.20
2022-08-29T08:50:13.279Z,2.50
2022-08-29T08:51:53.527Z,2.87
2022-08-29T08:53:39.516Z,2.90
2022-08-29T08:55:51.673Z,2.60
2022-08-29T08:57:26.834Z,2.90
2022-08-29T08:59:18.973Z,3.20
2022-08-29T09:01:10.995Z,3.37
2022-08-29T09:03:02.262Z,3.00
2022-08-29T09:04:52.016Z,2.60
2022-08-29T09:06:51.170Z,3.07
2022-08-29T09:08:37.897Z,3.07
2022-08-29T09:10:40.137Z,2.97
2022-08-29T09:12:33.585Z,3.10
2022-08-29T09:14:11.293Z,2.70
2022-08-29T09:15:48.921Z,4.13
2022-08-29T09:17:41.242Z,3.13
2022-08-29T09:19:17.335Z,2.80
2022-08-29T09:20:49.717Z,3.20
2022-08-29T09:22:26.481Z,3.07
2022-08-29T09:24:02.776Z,2.90
2022-08-29T09:25:36.253Z,2.63
2022-08-29T09:27:18.257Z,3.00
2022-08-29T09:28:50.248Z,2.77
2022-08-29T09:30:25.433Z,3.00
2022-08-29T09:32:08.007Z,2.60
2022-08-29T09:33:43.972Z,2.73
2022-08-29T09:35:26.445Z,3.10
2022-08-29T09:36:58.201Z,2.80
2022-08-29T09:38:29.911Z,2.90
2022-08-29T09:40:10.684Z,3.00
2022-08-29T09:41:44.346Z,2.73
2022-08-29T09:43:23.507Z,2.93
2022-08-29T09:44:58.566Z,2.60
2022-08-29T09:46:30.850Z,3.20
2022-08-29T09:48:15.942Z,3.17
2022-08-29T09:50:02.802Z,2.80
2022-08-29T09:51:37.611Z,2.83
2022-08-29T09:53:11.681Z,2.90
2022-08-29T09:54:55.829Z,2.90
2022-08-29T09:56:28.150Z,2.70
2022-08-29T09:58:31.086Z,3.27
2022-08-29T10:00:13.687Z,2.83
2022-08-29T10:01:45.550Z,2.97
2022-08-29T10:03:23.590Z,2.90
2022-08-29T10:05:11.991Z,2.77
2022-08-29T10:06:50.657Z,2.90
2022-08-29T10:08:31.099Z,2.70
2022-08-29T10:10:20.751Z,2.90
2022-08-29T10:12:00.343Z,3.10
2022-08-29T10:13:45.868Z,3.30
2022-08-29T10:15:51.570Z,2.80
2022-08-29T10:17:47.693Z,2.80
2022-08-29T10:19:26.929Z,2.40
2022-08-29T10:21:24.819Z,3.30
2022-08-29T10:23:25.809Z,3.33
2022-08-29T10:25:14.325Z,3.20
2022-08-29T10:27:02.255Z,3.00
2022-08-29T10:28:57.095Z,2.90
2022-08-29T10:31:00.920Z,2.67
2022-08-29T10:32:52.030Z,3.30
2022-08-29T10:35:05.751Z,3.00
2022-08-29T10:36:40.394Z,3.20
2022-08-29T10:38:17.918Z,2.90
2022-08-29T10:40:00.956Z,2.90
2022-08-29T10:42:04.413Z,3.00
2022-08-29T10:43:48.396Z,3.13
2022-08-29T10:45:36.046Z,2.70
2022-08-29T10:47:19.185Z,3.37
2022-08-29T10:49:02.404Z,2.70
2022-08-29T10:50:49.554Z,3.00
2022-08-29T10:52:33.023Z,3.30
2022-08-29T10:54:30.126Z,2.60
2022-08-29T10:56:25.904Z,3.07
2022-08-29T10:58:26.556Z,2.83
2022-08-29T11:00:02.471Z,2.80
2022-08-29T11:01:48.007Z,3.43
2022-08-29T11:03:42.323Z,2.80
2022-08-29T11:05:20.356Z,2.47
2022-08-29T11:07:13.695Z,2.93
2022-08-29T11:09:08.625Z,3.43
2022-08-29T11:10:45.459Z,3.20
2022-08-29T11:12:33.188Z,3.00
2022-08-29T11:14:24.409Z,3.00
2022-08-29T11:16:27.979Z,2.70
2022-08-29T11:18:22.404Z,3.10
2022-08-29T11:20:09.452Z,2.67
2022-08-29T11:21:49.911Z,3.00
2022-08-29T11:23:42.697Z,2.80
2022-08-29T11:25:20.278Z,2.70
2022-08-29T11:27:20.971Z,3.10
2022-08-29T11:29:15.793Z,3.03
2022-08-29T11:31:05.271Z,3.60
2022-08-29T11:33:14.320Z,2.80
2022-08-29T11:35:14.372Z,3.33
2022-08-29T11:37:11.248Z,3.10
2022-08-29T11:38:54.936Z,3.67
2022-08-29T11:42:52.030Z,2.80
2022-08-29T11:44:42.444Z,3.30
2022-08-29T11:46:15.880Z,3.10
2022-08-29T11:47:47.697Z,3.10
2022-08-29T11:49:30.133Z,2.63
2022-08-29T11:51:39.198Z,3.07
2022-08-29T11:53:35.626Z,3.00
2022-08-29T11:55:31.358Z,3.13
2022-08-29T11:57:05.751Z,3.20
2022-08-29T11:58:39.961Z,3.17
2022-08-29T12:00:31.284Z,2.83
2022-08-29T12:02:03.105Z,2.80
2022-08-29T12:03:35.520Z,2.83
2022-08-29T12:05:49.723Z,2.60
2022-08-29T12:07:42.009Z,2.77
2022-08-29T12:09:14.391Z,2.73
2022-08-29T12:10:56.552Z,2.97
2022-08-29T12:12:37.552Z,2.70
2022-08-29T12:14:09.271Z,3.27
2022-08-29T12:16:07.698Z,2.93
2022-08-29T12:18:01.394Z,2.50
2022-08-29T12:19:56.036Z,3.07
2022-08-29T12:21:46.973Z,2.80
2022-08-29T12:23:44.394Z,2.80
2022-08-29T12:25:28.340Z,2.40
2022-08-29T12:27:00.130Z,2.83
2022-08-29T12:28:47.205Z,2.93
2022-08-29T12:30:19.150Z,3.10
2022-08-29T12:32:34.783Z,3.00
2022-08-29T12:34:26.530Z,2.57
2022-08-29T12:36:20.259Z,2.87
2022-08-29T12:38:19.688Z,3.30
2022-08-29T12:40:00.396Z,3.03
2022-08-29T12:41:42.673Z,3.60
2022-08-29T12:43:27.969Z,2.90
2022-08-29T12:45:13.253Z,2.67
2022-08-29T12:46:50.338Z,3.00
2022-08-29T12:48:40.903Z,2.90
2022-08-29T12:50:26.561Z,2.40
2022-08-29T12:52:05.544Z,3.37
2022-08-29T12:53:38.244Z,3.07
2022-08-29T12:55:31.532Z,2.30
2022-08-29T12:57:18.479Z,2.70
2022-08-29T12:58:53.306Z,2.33
2022-08-29T13:00:31.895Z,2.47
2022-08-29T13:02:03.966Z,2.23
2022-08-29T13:03:36.366Z,2.63
2022-08-29T13:05:19.812Z,3.07
2022-08-29T13:06:54.396Z,2.33
2022-08-29T13:08:29.089Z,2.87
2022-08-29T13:10:01.213Z,2.43
2022-08-29T13:11:33.431Z,2.70
2022-08-29T13:13:18.856Z,2.83
2022-08-29T13:15:21.469Z,2.97
2022-08-29T13:16:53.219Z,3.43
2022-08-29T13:18:24.973Z,2.60
2022-08-29T13:20:37.778Z,2.40
2022-08-29T13:22:13.619Z,2.57
2022-08-29T13:23:47.167Z,2.57
2022-08-29T13:25:19.371Z,2.57
2022-08-29T13:27:04.754Z,2.63
2022-08-29T13:28:41.179Z,2.80
2022-08-29T13:30:22.816Z,2.83
2022-08-29T13:32:13.647Z,2.63
2022-08-29T13:33:51.564Z,3.43
2022-08-29T13:35:33.960Z,2.87
2022-08-29T13:37:16.264Z,3.13
2022-08-29T13:39:13.479Z,2.50
2022-08-29T13:40:50.791Z,2.40
2022-08-29T13:42:30.071Z,2.70
2022-08-29T13:44:02.176Z,2.50
2022-08-29T13:45:35.332Z,2.30
2022-08-29T13:47:19.515Z,2.43
2022-08-29T13:49:02.216Z,2.70
2022-08-29T13:50:34.035Z,2.70
2022-08-29T13:52:06.223Z,2.70
2022-08-29T13:53:38.593Z,2.50
2022-08-29T13:55:10.570Z,2.30
2022-08-29T13:56:43.020Z,2.27
2022-08-29T13:58:16.296Z,3.00
2022-08-29T13:59:49.259Z,2.50
2022-08-29T14:02:07.311Z,2.97
2022-08-29T14:03:16.789Z,3.00
2022-08-29T14:04:49.008Z,2.70
2022-08-29T14:06:23.069Z,3.13
2022-08-29T14:07:54.791Z,2.90
2022-08-29T14:09:32.649Z,2.37
2022-08-29T14:11:04.401Z,2.90
2022-08-29T14:12:44.084Z,3.20
2022-08-29T14:14:15.880Z,2.80
2022-08-29T14:15:47.718Z,3.07
2022-08-29T14:17:21.227Z,2.87
2022-08-29T14:18:53.690Z,2.70
2022-08-29T14:20:26.092Z,3.20
2022-08-29T14:22:02.465Z,3.00
2022-08-29T14:23:34.467Z,2.80
2022-08-29T14:25:08.579Z,3.00
2022-08-29T14:26:40.790Z,2.80
2022-08-29T14:28:13.928Z,2.37
2022-08-29T14:29:48.277Z,2.50
2022-08-29T14:31:19.999Z,3.07
2022-08-29T14:32:52.391Z,2.90
2022-08-29T14:34:24.122Z,2.87
2022-08-29T14:35:55.828Z,2.77
2022-08-29T14:37:27.582Z,2.63
2022-08-29T14:38:59.796Z,3.00
2022-08-29T14:40:32.950Z,2.73
2022-08-29T14:42:05.366Z,3.10
2022-08-29T14:43:39.880Z,3.23
2022-08-29T14:45:12.255Z,3.20
2022-08-29T14:46:43.990Z,2.77
2022-08-29T14:48:16.171Z,3.33
2022-08-29T14:49:48.127Z,2.87
2022-08-29T14:51:19.811Z,3.17
2022-08-29T14:52:52.063Z,3.00
2022-08-29T14:54:24.810Z,2.80
2022-08-29T14:55:58.394Z,2.80
2022-08-29T14:57:30.120Z,3.30
2022-08-29T14:59:01.853Z,2.80
2022-08-29T15:00:33.963Z,3.10
2022-08-29T15:02:05.977Z,3.07
2022-08-29T15:03:37.713Z,3.13
2022-08-29T15:05:10.512Z,2.83
2022-08-29T15:06:42.424Z,3.20
2022-08-29T15:08:15.905Z,3.57
2022-08-29T15:09:47.895Z,2.90
2022-08-29T15:11:19.634Z,3.20
2022-08-29T15:12:52.319Z,3.47
2022-08-29T15:14:24.590Z,2.90
2022-08-29T15:15:56.371Z,3.10
2022-08-29T15:17:31.207Z,3.00
2022-08-29T15:20:55.210Z,2.97
2022-08-29T15:22:27.472Z,3.20
2022-08-29T15:24:04.066Z,3.20
2022-08-29T15:25:35.853Z,3.00
2022-08-29T15:27:11.488Z,3.10
2022-08-29T15:28:43.259Z,3.23
2022-08-29T15:30:22.677Z,2.97
2022-08-29T15:31:57.174Z,3.33
2022-08-29T15:33:28.966Z,2.90
2022-08-29T15:35:03.310Z,3.23
2022-08-29T15:36:35.686Z,2.90
2022-08-29T15:38:08.167Z,3.10
2022-08-29T15:39:40.458Z,3.50
2022-08-29T15:41:12.218Z,2.73
2022-08-29T15:42:45.162Z,3.37
2022-08-29T15:44:16.914Z,2.50
2022-08-29T15:45:48.740Z,3.77
2022-08-29T15:47:21.714Z,2.63
2022-08-29T15:48:58.116Z,3.33
2022-08-29T15:50:29.930Z,3.50
2022-08-29T15:52:01.639Z,2.70
2022-08-29T15:53:33.394Z,3.07
2022-08-29T15:55:06.590Z,3.00
2022-08-29T15:56:38.616Z,2.90
2022-08-29T15:58:10.320Z,3.10
2022-08-29T15:59:57.752Z,3.00
2022-08-29T16:01:31.425Z,3.37
2022-08-29T16:03:04.187Z,3.40
2022-08-29T16:04:38.480Z,3.10
2022-08-29T16:06:10.781Z,3.07
2022-08-29T16:07:42.551Z,3.40
2022-08-29T16:09:16.147Z,3.10
2022-08-29T16:10:48.424Z,3.23
2022-08-29T16:12:20.464Z,3.53
2022-08-29T16:14:15.649Z,3.17
2022-08-29T16:15:48.845Z,3.60
2022-08-29T16:17:21.020Z,3.17
2022-08-29T16:18:53.401Z,3.30
2022-08-29T16:20:25.805Z,3.43
2022-08-29T16:21:59.845Z,3.23
2022-08-29T16:23:31.713Z,3.00
2022-08-29T16:25:06.217Z,3.57
2022-08-29T16:26:45.122Z,3.50
2022-08-29T16:28:18.816Z,3.70
2022-08-29T16:29:52.289Z,3.57
2022-08-29T16:31:24.488Z,3.80
2022-08-29T16:32:56.756Z,3.53
2022-08-29T16:34:29.207Z,4.00
2022-08-29T16:36:01.664Z,4.23
2022-08-29T16:37:33.879Z,4.97
2022-08-29T16:39:06.651Z,4.67
2022-08-29T16:40:38.951Z,4.97
2022-08-29T16:42:13.446Z,4.57
2022-08-29T16:43:51.627Z,5.30
2022-08-29T16:45:23.680Z,5.87
2022-08-29T16:46:55.367Z,4.77
2022-08-29T16:48:28.280Z,4.77
2022-08-29T16:50:00.655Z,3.90
2022-08-29T16:51:32.946Z,4.03
2022-08-29T16:53:05.100Z,4.37
2022-08-29T16:54:36.856Z,3.60
2022-08-29T16:56:12.546Z,3.70
2022-08-29T16:58:07.285Z,3.90
2022-08-29T16:59:39.004Z,3.27
2022-08-29T17:01:10.744Z,3.30
2022-08-29T17:02:42.575Z,3.40
2022-08-29T17:04:18.448Z,3.87
2022-08-29T17:05:50.139Z,3.80
2022-08-29T17:07:21.910Z,4.03
2022-08-29T17:08:53.638Z,4.90
2022-08-29T17:10:25.919Z,4.80
2022-08-29T17:11:57.690Z,4.00
2022-08-29T17:13:33.822Z,3.80
2022-08-29T17:15:07.959Z,3.63
2022-08-29T17:16:40.237Z,4.00
2022-08-29T17:18:12.023Z,3.90
2022-08-29T17:19:44.472Z,4.13
2022-08-29T17:21:18.178Z,3.80
2022-08-29T17:22:50.433Z,4.07
2022-08-29T17:24:22.246Z,4.20
2022-08-29T17:25:54.505Z,4.80
2022-08-29T17:27:29.999Z,4.47
2022-08-29T17:29:03.155Z,4.60
2022-08-29T17:30:35.253Z,4.27
2022-08-29T17:32:07.199Z,4.83
2022-08-29T17:33:39.039Z,4.00
2022-08-29T17:35:10.964Z,3.80
2022-08-29T17:36:44.141Z,3.90
2022-08-29T17:38:16.243Z,3.60
2022-08-29T17:39:48.151Z,3.40
2022-08-29T17:41:22.155Z,3.40
2022-08-29T17:42:55.173Z,3.93
2022-08-29T17:44:27.384Z,3.80
2022-08-29T17:45:59.259Z,4.10
2022-08-29T17:47:31.081Z,4.00
2022-08-29T17:49:07.634Z,3.63
2022-08-29T17:50:40.178Z,3.83
2022-08-29T17:52:11.904Z,3.30
2022-08-29T17:53:44.392Z,3.37
2022-08-29T17:55:16.189Z,3.80
2022-08-29T17:56:51.311Z,3.30
2022-08-29T17:58:23.132Z,3.93
2022-08-29T17:59:54.840Z,3.80
2022-08-29T18:01:26.578Z,3.60
2022-08-29T18:03:04.257Z,3.00
2022-08-29T18:04:36.265Z,3.80
2022-08-29T18:06:08.088Z,3.60
2022-08-29T18:07:41.120Z,3.50
2022-08-29T18:09:13.657Z,5.10
2022-08-29T18:10:45.377Z,5.20
2022-08-29T18:12:17.476Z,5.53
2022-08-29T18:13:49.197Z,12.13
2022-08-29T18:15:21.017Z,7.50
2022-08-29T18:16:58.131Z,4.90
2022-08-29T18:18:29.913Z,6.87
2022-08-29T18:20:02.119Z,4.90
2022-08-29T18:21:35.184Z,4.30
2022-08-29T18:23:07.346Z,4.83
2022-08-29T18:24:40.921Z,4.30
2022-08-29T18:26:15.002Z,5.10
2022-08-29T18:27:48.778Z,9.40
2022-08-29T18:29:21.393Z,6.87
2022-08-29T18:30:53.402Z,5.83
2022-08-29T18:32:25.671Z,4.80
2022-08-29T18:34:01.633Z,4.70
2022-08-29T18:35:33.716Z,4.17
2022-08-29T18:37:06.198Z,4.20
2022-08-29T18:38:38.170Z,4.13
2022-08-29T18:40:10.504Z,3.70
2022-08-29T18:41:42.927Z,3.27
2022-08-29T18:43:15.163Z,3.37
2022-08-29T18:44:47.342Z,3.93
2022-08-29T18:46:20.397Z,3.60
2022-08-29T18:47:52.632Z,3.33
2022-08-29T18:49:44.390Z,3.20
2022-08-29T18:51:16.680Z,3.37
2022-08-29T18:52:48.434Z,3.80
2022-08-29T18:54:23.081Z,3.27
2022-08-29T18:56:00.523Z,3.57
2022-08-29T18:57:33.481Z,3.70
2022-08-29T18:59:05.332Z,3.40
2022-08-29T19:00:38.483Z,3.50
2022-08-29T19:02:15.733Z,3.50
2022-08-29T19:03:47.827Z,4.50
2022-08-29T19:05:21.072Z,4.27
2022-08-29T19:06:52.823Z,3.93
2022-08-29T19:08:24.806Z,3.57
2022-08-29T19:09:56.546Z,3.80
2022-08-29T19:11:29.366Z,3.90
2022-08-29T19:13:01.820Z,4.30
2022-08-29T19:14:34.850Z,3.47
2022-08-29T19:16:12.948Z,3.63
2022-08-29T19:17:45.282Z,3.63
2022-08-29T19:19:17.141Z,3.50
2022-08-29T19:21:06.528Z,3.77
2022-08-29T19:22:38.571Z,3.23
2022-08-29T19:24:10.239Z,3.20
2022-08-29T19:25:42.376Z,3.50
2022-08-29T19:27:39.681Z,3.70
2022-08-29T19:29:13.229Z,3.90
2022-08-29T19:30:46.243Z,3.50
2022-08-29T19:32:18.061Z,3.80
2022-08-29T19:33:49.875Z,3.50
2022-08-29T19:35:23.183Z,3.97
2022-08-29T19:36:54.940Z,3.87
2022-08-29T19:38:30.092Z,3.70
2022-08-29T19:40:02.431Z,3.33
2022-08-29T19:41:34.658Z,2.70
2022-08-29T19:43:13.437Z,3.93
2022-08-29T19:44:45.884Z,3.53
2022-08-29T19:46:23.180Z,3.63
2022-08-29T19:47:57.621Z,3.97
2022-08-29T19:49:29.456Z,3.90
2022-08-29T19:51:01.262Z,3.90
2022-08-29T19:52:33.061Z,3.43
2022-08-29T19:54:05.898Z,3.73
2022-08-29T19:55:39.250Z,3.47
2022-08-29T19:57:14.592Z,4.20
2022-08-29T19:58:46.674Z,3.33
2022-08-29T20:00:23.920Z,4.10
2022-08-29T20:01:56.756Z,3.87
2022-08-29T20:03:29.049Z,3.60
2022-08-29T20:05:00.728Z,3.60
2022-08-29T20:06:34.496Z,3.70
2022-08-29T20:08:06.220Z,3.83
2022-08-29T20:09:37.940Z,3.77
2022-08-29T20:11:17.627Z,3.60
2022-08-29T20:12:51.217Z,3.50
2022-08-29T20:14:22.909Z,3.53
2022-08-29T20:15:55.099Z,3.30
2022-08-29T20:17:26.864Z,3.33
2022-08-29T20:19:04.879Z,3.77
2022-08-29T20:20:37.037Z,3.30
2022-08-29T20:22:08.800Z,3.40
2022-08-29T20:23:49.551Z,3.40
2022-08-29T20:25:23.976Z,3.27
2022-08-29T20:26:56.509Z,3.83
2022-08-29T20:28:32.340Z,3.77
2022-08-29T20:30:08.026Z,4.07
2022-08-29T20:31:40.278Z,3.20
2022-08-29T20:33:12.225Z,3.23
2022-08-29T20:34:43.936Z,3.43
2022-08-29T20:36:38.792Z,3.40
2022-08-29T20:38:11.445Z,3.80
2022-08-29T20:39:46.306Z,3.63
2022-08-29T20:41:21.106Z,3.73
2022-08-29T20:42:53.446Z,2.97
2022-08-29T20:44:32.967Z,3.57
2022-08-29T20:46:10.562Z,3.20
2022-08-29T20:47:42.315Z,3.53
2022-08-29T20:49:17.844Z,3.23
2022-08-29T20:51:02.151Z,3.00
2022-08-29T20:52:36.423Z,3.77
2022-08-29T20:54:08.156Z,4.10
2022-08-29T20:55:40.556Z,3.23
2022-08-29T20:57:13.053Z,3.20
2022-08-29T20:58:47.029Z,3.37
2022-08-29T21:00:19.618Z,3.53
2022-08-29T21:01:52.314Z,3.40
2022-08-29T21:03:42.937Z,3.73
2022-08-29T21:05:33.563Z,3.10
2022-08-29T21:07:09.564Z,3.03
2022-08-29T21:08:41.534Z,3.40
2022-08-29T21:10:13.233Z,3.20
2022-08-29T21:11:44.918Z,3.10
2022-08-29T21:13:17.432Z,3.30
2022-08-29T21:14:50.274Z,3.40
2022-08-29T21:16:22.157Z,2.90
2022-08-29T21:17:54.888Z,3.43
2022-08-29T21:19:29.826Z,3.67
2022-08-29T21:21:01.803Z,3.00
2022-08-29T21:22:33.626Z,2.83
2022-08-29T21:24:10.294Z,3.10
2022-08-29T21:25:44.353Z,3.00